Time;durP1;ratioP1;P1;durP2;ratioP2;P2;SDS_P1;SDS_P2;PMS_P1;PMS_P2;Temp;Humidity;BMP_temperature;BMP_pressure;BME280_temperature;BME280_humidity;BME280_pressure;Samples;Min_cycle;Max_cycle;Signal;HPM_P1;HPM_P2
2022/07/22 00:00:15;;;;;;;0.30;0.30;;;16.90;99.90;;;;;;4900268;28;20547;-89
2022/07/22 00:02:43;;;;;;;0.30;0.30;;;16.80;99.90;;;;;;4922661;28;20063;-88
2022/07/22 00:05:10;;;;;;;0.30;0.30;;;16.80;99.90;;;;;;4908753;28;20055;-88
2022/07/22 00:07:37;;;;;;;0.30;0.30;;;16.80;99.90;;;;;;4920091;28;20051;-89
2022/07/22 00:10:06;;;;;;;0.30;0.30;;;16.80;99.90;;;;;;4905287;28;20066;-88
2022/07/22 00:12:32;;;;;;;0.30;0.30;;;16.80;99.90;;;;;;4914740;28;20053;-87
2022/07/22 00:14:58;;;;;;;0.30;0.30;;;16.70;99.90;;;;;;4914891;28;20040;-89
2022/07/22 00:17:24;;;;;;;0.30;0.30;;;16.60;99.90;;;;;;4920901;28;20081;-89
2022/07/22 00:19:49;;;;;;;0.30;0.30;;;16.70;99.90;;;;;;4907400;28;20051;-89
2022/07/22 00:22:16;;;;;;;0.30;0.30;;;16.60;99.90;;;;;;4902967;28;20047;-91
2022/07/22 00:24:42;;;;;;;0.30;0.30;;;16.60;99.90;;;;;;4947337;28;20267;-93
2022/07/22 00:27:07;;;;;;;0.30;0.30;;;16.50;99.90;;;;;;4928724;28;20372;-89
2022/07/22 00:29:33;;;;;;;0.30;0.30;;;16.60;99.90;;;;;;4900408;28;20054;-89
2022/07/22 00:31:59;;;;;;;0.30;0.30;;;16.50;99.90;;;;;;4910635;28;20042;-86
2022/07/22 00:34:25;;;;;;;0.30;0.30;;;16.50;99.90;;;;;;4898703;28;20050;-86
2022/07/22 00:36:53;;;;;;;0.40;0.40;;;16.50;99.90;;;;;;4915275;28;20138;-86
2022/07/22 00:39:21;;;;;;;0.30;0.30;;;16.60;99.90;;;;;;4918673;28;20160;-86
2022/07/22 00:41:47;;;;;;;0.30;0.30;;;16.50;99.90;;;;;;4921330;28;20057;-87
2022/07/22 00:44:13;;;;;;;0.30;0.30;;;16.50;99.90;;;;;;4921321;28;20067;-87
2022/07/22 00:46:39;;;;;;;0.30;0.30;;;16.50;99.90;;;;;;4923992;28;20066;-86
2022/07/22 00:49:07;;;;;;;0.30;0.30;;;16.60;99.90;;;;;;4925263;28;20296;-86
2022/07/22 00:51:33;;;;;;;0.30;0.30;;;16.60;99.90;;;;;;4915649;28;20047;-86
2022/07/22 00:54:00;;;;;;;0.30;0.30;;;16.50;99.90;;;;;;4918098;28;20300;-87
2022/07/22 00:56:27;;;;;;;0.30;0.30;;;16.60;99.90;;;;;;4915773;28;20051;-86
2022/07/22 00:58:55;;;;;;;0.40;0.40;;;16.60;99.90;;;;;;4912904;28;20353;-86
2022/07/22 01:01:21;;;;;;;0.30;0.30;;;16.60;99.90;;;;;;4931799;28;20055;-86
2022/07/22 01:03:47;;;;;;;0.30;0.30;;;16.70;99.90;;;;;;4931121;28;20553;-86
2022/07/22 01:06:13;;;;;;;0.30;0.30;;;16.60;99.90;;;;;;4914124;28;20047;-88
2022/07/22 01:08:40;;;;;;;0.30;0.30;;;16.70;99.90;;;;;;4932537;28;20050;-88
2022/07/22 01:11:11;;;;;;;0.30;0.30;;;16.60;99.90;;;;;;4898362;28;20429;-88
2022/07/22 01:13:37;;;;;;;0.30;0.30;;;16.60;99.90;;;;;;4908875;28;20909;-88
2022/07/22 01:16:10;;;;;;;0.30;0.30;;;16.60;99.90;;;;;;4906179;28;20047;-87
2022/07/22 01:18:38;;;;;;;0.40;0.40;;;16.60;99.90;;;;;;4920989;28;20907;-88
2022/07/22 01:21:05;;;;;;;0.30;0.30;;;16.50;99.90;;;;;;4897994;28;20051;-88
2022/07/22 01:23:31;;;;;;;0.30;0.30;;;16.60;99.90;;;;;;4902945;28;20221;-87
2022/07/22 01:25:57;;;;;;;0.30;0.30;;;16.60;99.90;;;;;;4918732;28;20047;-87
2022/07/22 01:28:23;;;;;;;0.40;0.40;;;16.60;99.90;;;;;;4920557;28;20402;-88
2022/07/22 01:30:51;;;;;;;0.40;0.40;;;16.60;99.90;;;;;;4901680;28;20937;-88
2022/07/22 01:33:19;;;;;;;0.40;0.40;;;16.50;99.90;;;;;;4930024;28;20051;-86
2022/07/22 01:35:45;;;;;;;0.40;0.40;;;16.60;99.90;;;;;;4917975;28;20146;-87
2022/07/22 01:38:12;;;;;;;0.40;0.40;;;16.70;99.90;;;;;;4919882;28;20526;-87
2022/07/22 01:40:38;;;;;;;0.30;0.30;;;16.70;99.90;;;;;;4932345;28;20489;-87
2022/07/22 01:43:05;;;;;;;0.30;0.30;;;16.70;99.90;;;;;;4917814;28;20059;-87
2022/07/22 01:45:31;;;;;;;0.40;0.40;;;16.70;99.90;;;;;;4913957;28;20051;-87
2022/07/22 01:47:57;;;;;;;0.40;0.40;;;16.70;99.90;;;;;;4917668;28;20058;-87
2022/07/22 01:50:23;;;;;;;0.30;0.30;;;16.60;99.90;;;;;;4903603;28;20137;-87
2022/07/22 01:52:49;;;;;;;0.30;0.30;;;16.60;99.90;;;;;;4889127;28;20165;-87
2022/07/22 01:55:15;;;;;;;0.30;0.30;;;16.60;99.90;;;;;;4919800;28;20081;-87
2022/07/22 01:57:41;;;;;;;0.30;0.30;;;16.60;99.90;;;;;;4913777;28;20491;-87
2022/07/22 02:00:08;;;;;;;0.30;0.30;;;16.60;99.90;;;;;;4900637;28;20046;-87
2022/07/22 02:02:35;;;;;;;0.30;0.30;;;16.50;99.90;;;;;;4903972;28;20135;-87
2022/07/22 02:05:02;;;;;;;0.30;0.30;;;16.60;99.90;;;;;;4920288;28;20039;-86
2022/07/22 02:07:28;;;;;;;0.30;0.30;;;16.60;99.90;;;;;;4907136;28;20129;-86
2022/07/22 02:09:54;;;;;;;0.30;0.30;;;16.60;99.90;;;;;;4908711;28;20134;-87
2022/07/22 02:12:20;;;;;;;0.38;0.38;;;16.60;99.90;;;;;;4890889;28;20054;-87
2022/07/22 02:14:46;;;;;;;0.30;0.30;;;16.60;99.90;;;;;;4909306;28;20710;-86
2022/07/22 02:17:12;;;;;;;0.30;0.30;;;16.60;99.90;;;;;;4925268;28;20043;-88
2022/07/22 02:19:39;;;;;;;0.60;0.60;;;16.60;99.90;;;;;;4921996;28;20401;-87
2022/07/22 02:22:04;;;;;;;0.30;0.30;;;16.60;99.90;;;;;;4901236;28;20707;-87
2022/07/22 02:24:33;;;;;;;0.30;0.30;;;16.50;99.90;;;;;;4924311;28;20761;-87
2022/07/22 02:26:59;;;;;;;0.30;0.30;;;16.50;99.90;;;;;;4918806;28;20141;-87
2022/07/22 02:29:26;;;;;;;0.30;0.30;;;16.50;99.90;;;;;;4886782;28;20051;-88
2022/07/22 02:31:51;;;;;;;0.30;0.30;;;16.50;99.90;;;;;;4905910;28;20055;-87
2022/07/22 02:34:20;;;;;;;0.30;0.30;;;16.50;99.90;;;;;;4935109;28;20548;-87
2022/07/22 02:36:46;;;;;;;0.30;0.30;;;16.40;99.90;;;;;;4909778;28;20597;-87
2022/07/22 02:39:12;;;;;;;0.30;0.30;;;16.40;99.90;;;;;;4924749;28;20409;-87
2022/07/22 02:41:37;;;;;;;0.30;0.30;;;16.50;99.90;;;;;;4919819;28;20965;-88
2022/07/22 02:44:27;;;;;;;0.30;0.30;;;16.50;99.90;;;;;;4922586;28;20063;-87
2022/07/22 02:46:53;;;;;;;0.30;0.30;;;16.40;99.90;;;;;;4919770;28;20063;-87
2022/07/22 02:49:19;;;;;;;0.30;0.30;;;16.40;99.90;;;;;;4900503;28;20518;-87
2022/07/22 02:51:44;;;;;;;0.30;0.30;;;16.50;99.90;;;;;;4912247;28;20075;-87
2022/07/22 02:54:10;;;;;;;0.30;0.30;;;16.40;99.90;;;;;;4900928;28;20046;-87
2022/07/22 02:56:38;;;;;;;0.30;0.30;;;16.50;99.90;;;;;;4922478;28;20289;-86
2022/07/22 02:59:04;;;;;;;0.30;0.30;;;16.40;99.90;;;;;;4918603;28;20046;-87
2022/07/22 03:01:30;;;;;;;0.30;0.30;;;16.40;99.90;;;;;;4917294;28;20098;-88
2022/07/22 03:03:56;;;;;;;0.30;0.30;;;16.30;99.90;;;;;;4904141;28;20918;-86
2022/07/22 03:06:22;;;;;;;0.30;0.30;;;16.40;99.90;;;;;;4903470;28;20074;-86
2022/07/22 03:08:48;;;;;;;0.30;0.30;;;16.30;99.90;;;;;;4901106;28;20055;-87
2022/07/22 03:11:14;;;;;;;0.30;0.30;;;16.30;99.90;;;;;;4908163;28;20126;-86
2022/07/22 03:13:39;;;;;;;0.30;0.30;;;16.30;99.90;;;;;;4915956;28;20886;-87
2022/07/22 03:16:05;;;;;;;0.30;0.30;;;16.30;99.90;;;;;;4913394;28;20043;-87
2022/07/22 03:18:35;;;;;;;0.30;0.30;;;16.30;99.90;;;;;;4923948;28;20137;-86
2022/07/22 03:21:00;;;;;;;0.30;0.30;;;16.30;99.90;;;;;;4904104;28;20070;-87
2022/07/22 03:23:28;;;;;;;0.30;0.30;;;16.30;99.90;;;;;;4920546;28;20047;-86
2022/07/22 03:25:56;;;;;;;0.30;0.30;;;16.30;99.90;;;;;;4905737;28;20048;-86
2022/07/22 03:28:22;;;;;;;0.30;0.30;;;16.30;99.90;;;;;;4936965;28;20062;-86
2022/07/22 03:30:48;;;;;;;0.40;0.40;;;16.20;99.90;;;;;;4920772;28;20051;-86
2022/07/22 03:33:14;;;;;;;0.30;0.30;;;16.30;99.90;;;;;;4914443;28;20047;-86
2022/07/22 03:35:40;;;;;;;0.30;0.30;;;16.30;99.90;;;;;;4914091;28;20051;-86
2022/07/22 03:38:06;;;;;;;0.30;0.30;;;16.30;99.90;;;;;;4913951;28;20051;-87
2022/07/22 03:40:32;;;;;;;0.30;0.30;;;16.40;99.90;;;;;;4903923;28;20121;-87
2022/07/22 03:42:57;;;;;;;0.30;0.30;;;16.40;99.90;;;;;;4917703;28;20055;-86
2022/07/22 03:45:26;;;;;;;0.30;0.30;;;16.30;99.90;;;;;;4938815;28;20938;-86
2022/07/22 03:47:54;;;;;;;0.30;0.30;;;16.30;99.90;;;;;;4906079;28;20059;-86
2022/07/22 03:50:20;;;;;;;0.30;0.30;;;16.30;99.90;;;;;;4907864;28;20090;-86
2022/07/22 03:52:46;;;;;;;0.30;0.30;;;16.30;99.90;;;;;;4902716;28;20534;-86
2022/07/22 03:55:12;;;;;;;0.30;0.30;;;16.20;99.90;;;;;;4921675;28;20046;-86
2022/07/22 03:57:38;;;;;;;0.30;0.30;;;16.30;99.90;;;;;;4904551;28;20922;-86
2022/07/22 04:00:04;;;;;;;0.30;0.30;;;16.30;99.90;;;;;;4907153;28;20101;-86
2022/07/22 04:02:30;;;;;;;0.30;0.30;;;16.30;99.90;;;;;;4922040;28;20134;-86
2022/07/22 04:04:56;;;;;;;0.30;0.30;;;16.40;99.90;;;;;;4923962;28;20069;-86
2022/07/22 04:07:22;;;;;;;0.30;0.30;;;16.30;99.90;;;;;;4892380;28;20236;-86
2022/07/22 04:09:48;;;;;;;0.30;0.30;;;16.30;99.90;;;;;;4923148;28;20058;-87
2022/07/22 04:12:14;;;;;;;0.30;0.30;;;16.30;99.90;;;;;;4921033;28;20045;-86
2022/07/22 04:14:39;;;;;;;0.30;0.30;;;16.20;99.90;;;;;;4918799;28;20038;-86
2022/07/22 04:17:05;;;;;;;0.30;0.30;;;16.10;99.90;;;;;;4888799;28;20062;-86
2022/07/22 04:19:31;;;;;;;0.30;0.30;;;16.10;99.90;;;;;;4919956;28;20046;-87
2022/07/22 04:21:57;;;;;;;0.30;0.30;;;16.10;99.90;;;;;;4917779;28;20503;-87
2022/07/22 04:24:22;;;;;;;0.30;0.30;;;16.20;99.90;;;;;;4906273;28;20038;-87
2022/07/22 04:26:48;;;;;;;0.40;0.40;;;16.20;99.90;;;;;;4906274;28;20780;-85
2022/07/22 04:29:14;;;;;;;0.30;0.30;;;16.20;99.90;;;;;;4923081;28;20548;-86
2022/07/22 04:31:40;;;;;;;0.30;0.30;;;16.20;99.90;;;;;;4903816;28;20101;-86
2022/07/22 04:34:06;;;;;;;0.30;0.30;;;16.20;99.90;;;;;;4910293;28;20122;-85
2022/07/22 04:36:31;;;;;;;0.30;0.30;;;16.20;99.90;;;;;;4904991;28;20057;-85
2022/07/22 04:38:58;;;;;;;0.30;0.30;;;16.20;99.90;;;;;;4920554;28;20518;-86
2022/07/22 04:41:24;;;;;;;0.30;0.30;;;16.20;99.90;;;;;;4910150;28;20054;-86
2022/07/22 04:43:50;;;;;;;0.30;0.30;;;16.20;99.90;;;;;;4928154;28;20054;-87
2022/07/22 04:46:15;;;;;;;0.30;0.30;;;16.30;99.90;;;;;;4933990;28;20050;-86
2022/07/22 04:48:41;;;;;;;0.30;0.30;;;16.30;99.90;;;;;;4932822;28;20054;-86
2022/07/22 04:51:10;;;;;;;0.30;0.30;;;16.30;99.90;;;;;;4936199;28;20059;-87
2022/07/22 04:53:36;;;;;;;0.30;0.30;;;16.30;99.90;;;;;;4920565;28;20074;-87
2022/07/22 04:56:02;;;;;;;0.30;0.30;;;16.40;99.90;;;;;;4920403;28;20050;-86
2022/07/22 04:58:27;;;;;;;0.30;0.30;;;16.40;99.90;;;;;;4934442;28;20611;-85
2022/07/22 05:00:54;;;;;;;0.40;0.40;;;16.40;99.90;;;;;;4926233;28;20506;-86
2022/07/22 05:03:20;;;;;;;0.30;0.30;;;16.40;99.90;;;;;;4951038;28;20058;-86
2022/07/22 05:05:45;;;;;;;0.30;0.30;;;16.50;99.90;;;;;;4931004;28;20050;-86
2022/07/22 05:08:11;;;;;;;0.30;0.30;;;16.50;99.90;;;;;;4950900;28;20102;-86
2022/07/22 05:10:37;;;;;;;0.30;0.30;;;16.50;99.90;;;;;;4917338;28;20055;-85
2022/07/22 05:13:03;;;;;;;0.40;0.40;;;16.60;99.90;;;;;;4935960;28;20150;-85
2022/07/22 05:15:28;;;;;;;0.30;0.30;;;16.50;99.90;;;;;;4934290;28;20144;-85
2022/07/22 05:17:54;;;;;;;0.30;0.30;;;16.50;99.90;;;;;;4936489;28;21149;-86
2022/07/22 05:20:20;;;;;;;0.30;0.30;;;16.40;99.90;;;;;;4933563;28;20105;-86
2022/07/22 05:22:46;;;;;;;0.30;0.30;;;16.50;99.90;;;;;;4902966;28;20050;-86
2022/07/22 05:25:15;;;;;;;0.30;0.30;;;16.60;99.90;;;;;;4935671;28;20104;-86
2022/07/22 05:27:50;;;;;;;0.30;0.30;;;16.60;99.90;;;;;;4951117;28;20078;-85
2022/07/22 05:30:16;;;;;;;0.30;0.30;;;16.60;99.90;;;;;;4935509;28;20086;-85
2022/07/22 05:32:42;;;;;;;0.30;0.30;;;16.70;99.90;;;;;;4941315;28;20137;-86
2022/07/22 05:35:08;;;;;;;0.40;0.40;;;16.70;99.90;;;;;;4934210;28;20063;-86
2022/07/22 05:37:34;;;;;;;0.30;0.30;;;16.70;99.90;;;;;;4942707;28;20065;-86
2022/07/22 05:39:59;;;;;;;0.30;0.30;;;16.60;99.90;;;;;;4936696;28;20078;-85
2022/07/22 05:42:25;;;;;;;0.30;0.30;;;16.70;99.90;;;;;;4908017;28;20150;-86
2022/07/22 05:44:51;;;;;;;0.30;0.30;;;16.80;99.90;;;;;;4936911;28;20138;-86
2022/07/22 05:47:17;;;;;;;0.30;0.30;;;16.80;99.90;;;;;;4938513;28;20055;-86
2022/07/22 05:49:43;;;;;;;0.30;0.30;;;16.70;99.90;;;;;;4940303;28;20054;-86
2022/07/22 05:52:09;;;;;;;0.30;0.30;;;16.80;99.90;;;;;;4899369;28;20118;-86
2022/07/22 05:54:34;;;;;;;0.30;0.30;;;16.70;99.90;;;;;;4929968;28;20039;-86
2022/07/22 05:57:00;;;;;;;0.30;0.30;;;16.80;99.90;;;;;;4919235;28;20058;-86
2022/07/22 05:59:26;;;;;;;0.30;0.30;;;16.90;99.90;;;;;;4936399;28;20051;-85
2022/07/22 06:01:52;;;;;;;0.30;0.30;;;16.80;99.90;;;;;;4910582;28;20047;-85
2022/07/22 06:04:18;;;;;;;0.30;0.30;;;16.90;99.90;;;;;;4938306;28;20101;-86
2022/07/22 06:06:44;;;;;;;0.30;0.30;;;17.00;99.90;;;;;;4937536;28;20085;-85
2022/07/22 06:09:10;;;;;;;0.30;0.30;;;16.90;99.90;;;;;;4930623;28;20129;-86
2022/07/22 06:11:35;;;;;;;0.30;0.30;;;16.90;99.90;;;;;;4933335;28;20229;-86
2022/07/22 06:14:01;;;;;;;0.35;0.35;;;16.90;99.90;;;;;;4920384;28;20043;-85
2022/07/22 06:16:27;;;;;;;0.30;0.30;;;17.00;99.90;;;;;;4930773;28;20039;-84
2022/07/22 06:18:52;;;;;;;0.30;0.30;;;17.00;99.90;;;;;;4935582;28;20082;-84
2022/07/22 06:21:18;;;;;;;0.30;0.30;;;17.10;99.90;;;;;;4936280;28;20055;-84
2022/07/22 06:23:44;;;;;;;0.30;0.30;;;17.10;99.90;;;;;;4932127;28;20554;-84
2022/07/22 06:26:10;;;;;;;0.30;0.30;;;17.20;99.90;;;;;;4932693;28;20051;-85
2022/07/22 06:28:35;;;;;;;0.30;0.30;;;17.30;99.90;;;;;;4934047;28;20130;-86
2022/07/22 06:31:01;;;;;;;0.30;0.30;;;17.40;99.90;;;;;;4929920;28;20195;-86
2022/07/22 06:33:27;;;;;;;0.30;0.30;;;17.50;99.90;;;;;;4925539;28;20402;-85
2022/07/22 06:35:53;;;;;;;0.30;0.30;;;17.40;99.90;;;;;;4943174;28;20506;-86
2022/07/22 06:38:19;;;;;;;0.30;0.30;;;17.40;99.90;;;;;;4931732;28;20051;-85
2022/07/22 06:40:44;;;;;;;0.30;0.30;;;17.40;99.90;;;;;;4933642;28;20550;-85
2022/07/22 06:43:10;;;;;;;0.30;0.30;;;17.50;99.90;;;;;;4935335;28;20153;-84
2022/07/22 06:45:36;;;;;;;0.30;0.30;;;17.60;99.90;;;;;;4933386;28;20189;-84
2022/07/22 06:48:02;;;;;;;0.30;0.30;;;17.70;99.90;;;;;;4943531;28;20046;-84
2022/07/22 06:50:28;;;;;;;0.30;0.30;;;17.70;99.90;;;;;;4955775;28;20057;-85
2022/07/22 06:52:54;;;;;;;0.30;0.30;;;17.80;99.90;;;;;;4937976;28;20066;-86
2022/07/22 06:55:20;;;;;;;0.30;0.30;;;17.90;99.90;;;;;;4933676;28;20055;-84
2022/07/22 06:57:45;;;;;;;0.30;0.30;;;18.00;99.90;;;;;;4932647;28;21105;-83
2022/07/22 07:00:12;;;;;;;0.30;0.30;;;18.10;99.90;;;;;;4937580;28;20461;-85
2022/07/22 07:02:38;;;;;;;0.30;0.30;;;18.10;99.90;;;;;;4921555;28;20055;-84
2022/07/22 07:05:04;;;;;;;0.30;0.30;;;18.00;99.90;;;;;;4937199;28;20077;-84
2022/07/22 07:07:30;;;;;;;0.30;0.30;;;18.00;99.90;;;;;;4934142;28;20046;-83
2022/07/22 07:09:56;;;;;;;0.30;0.30;;;18.00;99.90;;;;;;4936878;28;20081;-83
2022/07/22 07:12:21;;;;;;;0.30;0.30;;;18.10;99.90;;;;;;4923781;28;20043;-84
2022/07/22 07:14:47;;;;;;;0.30;0.30;;;18.10;99.90;;;;;;4939820;28;20081;-84
2022/07/22 07:17:15;;;;;;;0.22;0.22;;;18.10;99.90;;;;;;4920096;28;20047;-84
2022/07/22 07:19:41;;;;;;;0.30;0.30;;;17.80;99.90;;;;;;4916746;28;20084;-84
2022/07/22 07:22:07;;;;;;;0.30;0.30;;;18.10;99.90;;;;;;4938611;28;20061;-83
2022/07/22 07:24:33;;;;;;;0.30;0.30;;;18.20;99.90;;;;;;4937632;28;20054;-82
2022/07/22 07:26:58;;;;;;;0.30;0.30;;;18.20;99.90;;;;;;4921025;28;20055;-83
2022/07/22 07:29:25;;;;;;;0.30;0.30;;;18.40;99.90;;;;;;4923920;28;20050;-84
2022/07/22 07:31:51;;;;;;;0.30;0.30;;;18.50;99.90;;;;;;4938476;28;20537;-84
2022/07/22 07:34:16;;;;;;;0.30;0.30;;;18.50;99.90;;;;;;4936857;28;20104;-83
2022/07/22 07:36:43;;;;;;;0.30;0.30;;;18.50;99.90;;;;;;4934098;28;20760;-84
2022/07/22 07:39:08;;;;;;;0.30;0.30;;;18.50;99.90;;;;;;4932287;28;20058;-83
2022/07/22 07:41:34;;;;;;;0.30;0.30;;;18.60;99.90;;;;;;4928181;28;20115;-84
2022/07/22 07:44:00;;;;;;;0.30;0.30;;;18.70;99.90;;;;;;4931957;28;20066;-83
2022/07/22 07:46:26;;;;;;;0.30;0.30;;;18.50;99.90;;;;;;4935503;28;20066;-85
2022/07/22 07:48:52;;;;;;;0.30;0.30;;;18.80;99.90;;;;;;4935851;28;20433;-83
2022/07/22 07:51:18;;;;;;;0.30;0.30;;;18.90;99.90;;;;;;4933107;28;20085;-84
2022/07/22 07:53:43;;;;;;;0.30;0.30;;;18.70;99.90;;;;;;4917846;28;20638;-85
2022/07/22 07:56:09;;;;;;;0.30;0.30;;;18.80;99.90;;;;;;4931824;28;20039;-84
2022/07/22 07:58:35;;;;;;;0.30;0.30;;;18.90;99.90;;;;;;4931736;28;20069;-83
2022/07/22 08:01:01;;;;;;;0.30;0.30;;;18.90;99.90;;;;;;4935230;28;20051;-82
2022/07/22 08:03:27;;;;;;;0.30;0.30;;;18.80;99.90;;;;;;4917431;28;20366;-85
2022/07/22 08:05:53;;;;;;;0.30;0.30;;;18.70;99.90;;;;;;4932368;28;20057;-83
2022/07/22 08:08:18;;;;;;;0.30;0.30;;;18.80;99.90;;;;;;4918127;28;20065;-83
2022/07/22 08:10:44;;;;;;;0.22;0.22;;;18.60;99.90;;;;;;4916846;28;21173;-83
2022/07/22 08:13:10;;;;;;;0.30;0.30;;;18.60;99.90;;;;;;4955384;28;20073;-83
2022/07/22 08:15:36;;;;;;;0.30;0.30;;;18.70;99.90;;;;;;4932811;28;20509;-82
2022/07/22 08:18:02;;;;;;;0.30;0.30;;;18.70;99.90;;;;;;4952089;28;20047;-83
2022/07/22 08:20:29;;;;;;;0.30;0.30;;;18.70;99.90;;;;;;4936782;28;20137;-83
2022/07/22 08:22:55;;;;;;;0.30;0.30;;;18.70;99.90;;;;;;4915686;28;20042;-84
2022/07/22 08:25:22;;;;;;;0.30;0.30;;;18.60;99.90;;;;;;4936814;28;20115;-83
2022/07/22 08:27:48;;;;;;;0.30;0.30;;;18.60;99.90;;;;;;4932520;28;20555;-84
2022/07/22 08:30:15;;;;;;;0.30;0.30;;;18.80;99.90;;;;;;4944601;28;20073;-84
2022/07/22 08:32:41;;;;;;;0.30;0.30;;;18.90;99.90;;;;;;4951500;28;20188;-83
2022/07/22 08:35:08;;;;;;;0.30;0.30;;;18.90;99.90;;;;;;4930189;28;20623;-82
2022/07/22 08:37:34;;;;;;;0.30;0.30;;;18.90;99.90;;;;;;4949423;28;20073;-83
2022/07/22 08:40:01;;;;;;;0.30;0.30;;;18.90;99.90;;;;;;4932819;28;20050;-83
2022/07/22 08:42:27;;;;;;;0.30;0.30;;;19.00;99.90;;;;;;4953734;28;20509;-83
2022/07/22 08:44:54;;;;;;;0.30;0.30;;;18.90;99.90;;;;;;4937242;28;20059;-84
2022/07/22 08:47:25;;;;;;;0.30;0.30;;;18.90;99.90;;;;;;4933915;28;20091;-82
2022/07/22 08:49:51;;;;;;;0.30;0.30;;;18.90;99.90;;;;;;4934001;28;20065;-84
2022/07/22 08:52:17;;;;;;;0.30;0.30;;;18.80;99.90;;;;;;4934588;28;20046;-84
2022/07/22 08:54:43;;;;;;;0.30;0.30;;;18.70;99.90;;;;;;4932074;28;20101;-84
2022/07/22 08:57:09;;;;;;;0.30;0.30;;;18.90;99.90;;;;;;4926235;28;20050;-83
2022/07/22 08:59:58;;;;;;;0.30;0.30;;;19.00;99.90;;;;;;4928613;28;20453;-82
2022/07/22 09:02:25;;;;;;;0.30;0.30;;;18.90;99.90;;;;;;4937195;28;20055;-84
2022/07/22 09:04:57;;;;;;;0.30;0.30;;;18.90;99.90;;;;;;4952428;28;20046;-82
2022/07/22 09:07:29;;;;;;;0.30;0.30;;;19.10;99.90;;;;;;4935604;28;20047;-82
2022/07/22 09:09:56;;;;;;;0.30;0.30;;;18.90;99.90;;;;;;4950157;28;20108;-82
2022/07/22 09:12:22;;;;;;;0.30;0.30;;;19.00;99.90;;;;;;4950551;28;20092;-83
2022/07/22 09:14:54;;;;;;;0.30;0.30;;;19.20;99.90;;;;;;4934312;28;20054;-83
2022/07/22 09:17:27;;;;;;;0.30;0.30;;;19.40;99.90;;;;;;4934391;28;20414;-84
2022/07/22 09:19:54;;;;;;;;;;;19.60;99.90;;;;;;4951182;28;20089;-83
2022/07/22 09:22:44;;;;;;;0.30;0.30;;;19.60;99.90;;;;;;4953324;28;20728;-82
2022/07/22 09:25:30;;;;;;;0.30;0.30;;;19.60;99.90;;;;;;4957669;28;20053;-82
2022/07/22 09:28:20;;;;;;;0.30;0.30;;;19.70;99.90;;;;;;4933609;28;20510;-82
2022/07/22 09:30:52;;;;;;;0.30;0.30;;;19.80;99.90;;;;;;4936643;28;20050;-83
2022/07/22 09:33:19;;;;;;;0.30;0.30;;;19.60;99.90;;;;;;4935628;28;20058;-85
2022/07/22 09:35:46;;;;;;;0.30;0.30;;;19.80;99.90;;;;;;4941303;28;21056;-83
2022/07/22 09:38:13;;;;;;;0.20;0.20;;;19.70;99.90;;;;;;4951617;28;20059;-84
2022/07/22 09:40:41;;;;;;;0.30;0.30;;;19.70;99.90;;;;;;4931974;28;20065;-82
2022/07/22 09:43:12;;;;;;;0.20;0.20;;;19.70;99.90;;;;;;4948356;28;20055;-83
2022/07/22 09:45:53;;;;;;;0.30;0.30;;;19.80;99.90;;;;;;4947061;28;20054;-83
2022/07/22 09:48:21;;;;;;;0.35;0.35;;;20.00;99.90;;;;;;4954859;28;20058;-83
2022/07/22 09:50:48;;;;;;;0.30;0.30;;;20.00;99.90;;;;;;4960488;28;20054;-82
2022/07/22 09:53:16;;;;;;;0.20;0.20;;;20.10;99.90;;;;;;4955211;28;20046;-85
2022/07/22 09:55:42;;;;;;;0.30;0.30;;;20.10;99.90;;;;;;4936961;28;20098;-83
2022/07/22 09:58:08;;;;;;;0.30;0.30;;;20.10;99.90;;;;;;4938757;28;20050;-82
2022/07/22 10:00:36;;;;;;;0.30;0.30;;;20.20;99.90;;;;;;4948915;28;20065;-83
2022/07/22 10:03:03;;;;;;;0.30;0.30;;;20.20;99.90;;;;;;4938210;28;20426;-82
2022/07/22 10:05:32;;;;;;;0.30;0.30;;;20.30;99.90;;;;;;4935002;28;20065;-84
2022/07/22 10:08:00;;;;;;;0.30;0.30;;;20.30;99.90;;;;;;4937424;28;20124;-83
2022/07/22 10:10:28;;;;;;;0.30;0.30;;;20.40;99.90;;;;;;4937953;28;20461;-82
2022/07/22 10:12:56;;;;;;;0.30;0.30;;;20.20;99.90;;;;;;4935052;28;20059;-82
2022/07/22 10:15:24;;;;;;;0.30;0.30;;;20.30;99.90;;;;;;4923494;28;20074;-83
2022/07/22 10:17:52;;;;;;;0.30;0.30;;;20.20;99.90;;;;;;4933640;28;20126;-82
2022/07/22 10:20:29;;;;;;;0.20;0.20;;;20.30;99.90;;;;;;4921656;28;20886;-82
2022/07/22 10:23:04;;;;;;;0.40;0.40;;;20.30;99.90;;;;;;4934325;28;20050;-82
2022/07/22 10:25:52;;;;;;;0.20;0.20;;;20.20;99.90;;;;;;4937301;28;20054;-82
2022/07/22 10:28:31;;;;;;;0.20;0.20;;;20.00;99.90;;;;;;4935734;28;20093;-83
2022/07/22 10:31:22;;;;;;;0.30;0.30;;;20.10;99.90;;;;;;4946099;28;20069;-84
2022/07/22 10:33:54;;;;;;;0.30;0.30;;;20.00;99.90;;;;;;4925336;28;20522;-82
2022/07/22 10:36:42;;;;;;;0.38;0.38;;;19.90;99.90;;;;;;4937460;28;20045;-81
2022/07/22 10:39:13;;;;;;;0.30;0.30;;;19.80;99.90;;;;;;4953297;28;20062;-82
2022/07/22 10:41:44;;;;;;;0.30;0.30;;;19.80;99.90;;;;;;4933604;28;20043;-83
2022/07/22 10:44:10;;;;;;;0.30;0.30;;;19.80;99.90;;;;;;4953959;28;20062;-82
2022/07/22 10:46:58;;;;;;;0.30;0.30;;;20.00;99.90;;;;;;4933023;28;20051;-82
2022/07/22 10:49:25;;;;;;;0.30;0.30;;;19.90;99.90;;;;;;4929202;28;20050;-82
2022/07/22 10:52:11;;;;;;;0.20;0.20;;;20.00;99.90;;;;;;4943839;28;20754;-82
2022/07/22 10:55:20;;;;;;;0.30;0.30;;;20.20;99.90;;;;;;4926869;28;20148;-81
2022/07/22 10:57:46;;;;;;;0.30;0.30;;;20.00;99.90;;;;;;4920726;28;20123;-82
2022/07/22 11:00:12;;;;;;;0.30;0.30;;;19.90;99.90;;;;;;4932840;28;20600;-81
2022/07/22 11:02:38;;;;;;;0.30;0.30;;;19.90;99.90;;;;;;4930076;28;20050;-83
2022/07/22 11:05:05;;;;;;;0.30;0.30;;;20.30;99.90;;;;;;4908567;28;20511;-80
2022/07/22 11:07:34;;;;;;;0.30;0.30;;;20.70;99.90;;;;;;4914098;28;20042;-82
2022/07/22 11:10:20;;;;;;;0.30;0.30;;;21.00;99.90;;;;;;4937504;28;20194;-83
2022/07/22 11:12:47;;;;;;;0.30;0.30;;;21.20;99.90;;;;;;4919145;28;20832;-83
2022/07/22 11:15:13;;;;;;;0.30;0.30;;;21.50;99.90;;;;;;4921497;28;20046;-84
2022/07/22 11:17:40;;;;;;;0.30;0.30;;;21.50;99.90;;;;;;4919317;28;20054;-84
2022/07/22 11:20:11;;;;;;;0.30;0.30;;;21.70;99.90;;;;;;4914215;28;20054;-82
2022/07/22 11:22:37;;;;;;;0.30;0.30;;;21.40;99.90;;;;;;4914271;28;20055;-83
2022/07/22 11:25:06;;;;;;;0.30;0.30;;;21.50;99.90;;;;;;4932503;28;20051;-82
2022/07/22 11:27:32;;;;;;;0.20;0.20;;;21.30;99.90;;;;;;4925710;28;20061;-82
2022/07/22 11:29:58;;;;;;;0.20;0.20;;;21.20;99.90;;;;;;4933952;28;20159;-82
2022/07/22 11:32:27;;;;;;;0.20;0.20;;;20.80;99.90;;;;;;4918455;28;20876;-82
2022/07/22 11:34:53;;;;;;;0.30;0.30;;;20.90;99.90;;;;;;4917828;28;20108;-82
2022/07/22 11:37:25;;;;;;;0.30;0.30;;;20.80;99.90;;;;;;4919602;28;20085;-82
2022/07/22 11:39:58;;;;;;;0.30;0.30;;;20.90;99.90;;;;;;4936199;28;20061;-81
2022/07/22 11:42:25;;;;;;;0.28;0.28;;;21.10;99.90;;;;;;4928048;28;20654;-84
2022/07/22 11:44:51;;;;;;;0.30;0.30;;;20.90;99.90;;;;;;4928727;28;20063;-82
2022/07/22 11:47:17;;;;;;;0.30;0.30;;;21.00;99.90;;;;;;4941647;28;20750;-84
2022/07/22 11:49:48;;;;;;;0.30;0.30;;;21.30;99.90;;;;;;4931073;28;20135;-82
2022/07/22 11:52:13;;;;;;;0.30;0.30;;;21.20;99.90;;;;;;4933116;28;20069;-83
2022/07/22 11:54:44;;;;;;;0.20;0.20;;;21.20;99.90;;;;;;4912679;28;20054;-83
2022/07/22 11:57:10;;;;;;;0.32;0.32;;;21.00;99.90;;;;;;4915987;28;20522;-83
2022/07/22 11:59:36;;;;;;;0.20;0.20;;;21.00;99.90;;;;;;4914734;28;20065;-82
2022/07/22 12:02:04;;;;;;;0.30;0.30;;;20.70;99.90;;;;;;4914944;28;20058;-83
2022/07/22 12:04:31;;;;;;;0.30;0.30;;;20.80;99.90;;;;;;4910304;28;20122;-82
2022/07/22 12:07:01;;;;;;;0.30;0.30;;;20.70;99.90;;;;;;4913063;28;20088;-82
2022/07/22 12:09:30;;;;;;;0.30;0.30;;;20.60;99.90;;;;;;4918411;28;20154;-83
2022/07/22 12:11:57;;;;;;;0.20;0.20;;;20.20;99.90;;;;;;4909217;28;20051;-83
2022/07/22 12:14:32;;;;;;;0.30;0.30;;;20.20;99.90;;;;;;4912348;28;20607;-82
2022/07/22 12:17:04;;;;;;;0.30;0.30;;;19.90;99.90;;;;;;4914817;28;20050;-82
2022/07/22 12:19:33;;;;;;;0.20;0.20;;;20.20;99.90;;;;;;4916779;28;20481;-82
2022/07/22 12:22:20;;;;;;;0.30;0.30;;;19.90;99.90;;;;;;4914174;28;20624;-83
2022/07/22 12:24:59;;;;;;;0.30;0.30;;;20.00;99.90;;;;;;4920150;28;20065;-81
2022/07/22 12:27:24;;;;;;;0.30;0.30;;;20.20;99.90;;;;;;4894896;28;20062;-82
2022/07/22 12:29:50;;;;;;;0.30;0.30;;;20.20;99.90;;;;;;4929934;28;20460;-82
2022/07/22 12:32:22;;;;;;;0.30;0.30;;;20.20;99.90;;;;;;4910734;28;20516;-82
2022/07/22 12:35:03;;;;;;;0.30;0.30;;;20.20;99.90;;;;;;4931554;28;20058;-81
2022/07/22 12:37:40;;;;;;;0.30;0.30;;;20.00;99.90;;;;;;4918197;28;20141;-82
2022/07/22 12:40:09;;;;;;;0.30;0.30;;;20.10;99.90;;;;;;4905804;28;20105;-82
2022/07/22 12:42:47;;;;;;;0.30;0.30;;;20.30;99.90;;;;;;4940320;28;20047;-82
2022/07/22 12:45:16;;;;;;;0.30;0.30;;;20.20;99.90;;;;;;4940705;28;20975;-81
2022/07/22 12:47:48;;;;;;;0.30;0.30;;;20.30;99.90;;;;;;4918512;28;20058;-83
2022/07/22 12:50:24;;;;;;;0.30;0.30;;;20.40;99.90;;;;;;4913512;28;20059;-82